Time;durP1;ratioP1;P1;durP2;ratioP2;P2;SDS_P1;SDS_P2;PMS_P1;PMS_P2;Temp;Humidity;BMP_temperature;BMP_pressure;BME280_temperature;BME280_humidity;BME280_pressure;Samples;Min_cycle;Max_cycle;Signal;HPM_P1;HPM_P2
2021/09/23 00:01:29;;;;;;;5.63;3.63;;;8.10;99.90;;;;;;4126628;28;20030;-69
2021/09/23 00:05:35;;;;;;;5.37;3.83;;;8.00;99.90;;;;;;4127857;28;20096;-67
2021/09/23 00:07:36;;;;;;;6.70;4.20;;;8.00;99.90;;;;;;4126417;28;20430;-66
2021/09/23 00:09:37;;;;;;;6.17;3.97;;;8.00;99.90;;;;;;4128532;28;20046;-69
2021/09/23 00:11:38;;;;;;;4.93;3.67;;;7.90;99.90;;;;;;4126691;28;20042;-67
2021/09/23 00:13:39;;;;;;;6.13;3.80;;;7.90;99.90;;;;;;4127440;28;20034;-67
2021/09/23 00:15:42;;;;;;;4.47;3.73;;;7.90;99.90;;;;;;4126534;28;20580;-67
2021/09/23 00:17:47;;;;;;;5.60;3.73;;;7.90;99.90;;;;;;4127336;28;20728;-66
2021/09/23 00:19:49;;;;;;;4.87;3.33;;;7.90;99.90;;;;;;4126721;28;20038;-67
2021/09/23 00:21:50;;;;;;;7.63;3.90;;;7.80;99.90;;;;;;4127239;28;20049;-67
2021/09/23 00:23:53;;;;;;;6.17;3.70;;;7.80;99.90;;;;;;4127160;28;20042;-67
2021/09/23 00:25:54;;;;;;;5.97;4.33;;;7.80;99.90;;;;;;4126051;28;20117;-67
2021/09/23 00:27:57;;;;;;;4.40;3.53;;;7.80;99.90;;;;;;4127126;28;20100;-69
2021/09/23 00:29:58;;;;;;;6.73;4.17;;;7.70;99.90;;;;;;4126090;28;20911;-70
2021/09/23 00:31:59;;;;;;;4.87;3.50;;;7.70;99.90;;;;;;4127465;28;20097;-66
2021/09/23 00:34:00;;;;;;;5.17;3.20;;;7.70;99.90;;;;;;4126386;28;20044;-66
2021/09/23 00:36:01;;;;;;;5.80;3.90;;;7.70;99.90;;;;;;4127716;28;20034;-71
2021/09/23 00:38:03;;;;;;;13.93;3.53;;;7.70;99.90;;;;;;4126085;28;20030;-71
2021/09/23 00:40:08;;;;;;;5.33;3.83;;;7.70;99.90;;;;;;4128027;28;20026;-66
2021/09/23 00:42:09;;;;;;;6.53;3.80;;;7.70;99.90;;;;;;4126451;28;20446;-66
2021/09/23 00:44:19;;;;;;;5.77;4.17;;;7.70;99.90;;;;;;4125225;28;20042;-70
2021/09/23 00:46:20;;;;;;;9.48;4.05;;;7.70;99.90;;;;;;4126086;28;20030;-72
2021/09/23 00:48:21;;;;;;;5.77;4.43;;;7.80;99.90;;;;;;4126858;28;20092;-67
2021/09/23 00:50:23;;;;;;;4.97;3.90;;;7.70;99.90;;;;;;4126291;28;20441;-72
2021/09/23 00:52:25;;;;;;;6.47;3.63;;;7.70;99.90;;;;;;4125590;28;20050;-70
2021/09/23 00:54:26;;;;;;;4.50;3.30;;;7.70;99.90;;;;;;4125207;28;20030;-66
2021/09/23 00:56:27;;;;;;;7.93;4.03;;;7.70;99.90;;;;;;4126267;28;20026;-66
2021/09/23 00:58:29;;;;;;;5.13;4.10;;;7.70;99.90;;;;;;4126523;28;20034;-67
2021/09/23 01:00:30;;;;;;;5.77;4.07;;;7.60;99.90;;;;;;4126122;28;20524;-71
2021/09/23 01:02:32;;;;;;;7.13;4.20;;;7.60;99.90;;;;;;4126793;28;20038;-69
2021/09/23 01:04:33;;;;;;;6.47;4.07;;;7.60;99.90;;;;;;4126058;28;20034;-67
2021/09/23 01:06:34;;;;;;;5.50;4.00;;;7.60;99.90;;;;;;4127579;28;20038;-66
2021/09/23 01:08:39;;;;;;;5.40;3.33;;;7.60;99.90;;;;;;4126119;28;20039;-65
2021/09/23 01:10:40;;;;;;;5.93;3.67;;;7.60;99.90;;;;;;4127380;28;20481;-68
2021/09/23 01:12:42;;;;;;;4.50;3.67;;;7.60;99.90;;;;;;4125870;28;20821;-69
2021/09/23 01:14:43;;;;;;;4.83;3.63;;;7.60;99.90;;;;;;4127165;28;20483;-66
2021/09/23 01:16:45;;;;;;;5.10;3.83;;;7.50;99.90;;;;;;4125154;28;20097;-69
2021/09/23 01:18:46;;;;;;;5.40;3.30;;;7.50;99.90;;;;;;4126822;28;20097;-66
2021/09/23 01:20:48;;;;;;;5.97;3.60;;;7.50;99.90;;;;;;4125810;28;20100;-66
2021/09/23 01:22:49;;;;;;;6.43;3.77;;;7.50;99.90;;;;;;4126860;28;20530;-68
2021/09/23 01:24:50;;;;;;;7.27;4.03;;;7.50;99.90;;;;;;4125880;28;20050;-66
2021/09/23 01:26:55;;;;;;;4.57;3.30;;;7.50;99.90;;;;;;4126214;28;20046;-66
2021/09/23 01:28:57;;;;;;;5.10;3.43;;;7.60;99.90;;;;;;4126366;28;20019;-67
2021/09/23 01:30:58;;;;;;;7.13;3.93;;;7.60;99.90;;;;;;4125804;28;20058;-66
2021/09/23 01:33:00;;;;;;;5.93;4.10;;;7.60;99.90;;;;;;4126379;28;20034;-67
2021/09/23 01:35:03;;;;;;;7.53;3.57;;;7.60;99.90;;;;;;4125780;28;20038;-67
2021/09/23 01:37:04;;;;;;;7.17;3.63;;;7.60;99.90;;;;;;4126876;28;20030;-65
2021/09/23 01:39:05;;;;;;;6.70;4.10;;;7.60;99.90;;;;;;4125495;28;20093;-65
2021/09/23 01:41:06;;;;;;;4.70;3.27;;;7.70;99.90;;;;;;4126922;28;20876;-67
2021/09/23 01:43:07;;;;;;;6.03;3.50;;;7.70;99.90;;;;;;4123876;28;20109;-69
2021/09/23 01:45:10;;;;;;;3.97;3.23;;;7.70;99.90;;;;;;4126056;28;20167;-67
2021/09/23 01:47:11;;;;;;;6.50;3.13;;;7.70;99.90;;;;;;4125190;28;20080;-65
2021/09/23 01:49:12;;;;;;;5.20;3.50;;;7.70;99.90;;;;;;4126221;28;20034;-65
2021/09/23 01:51:13;;;;;;;4.40;3.20;;;7.60;99.90;;;;;;4125111;28;20038;-65
2021/09/23 01:53:14;;;;;;;5.77;3.90;;;7.60;99.90;;;;;;4126648;28;20096;-67
2021/09/23 01:55:15;;;;;;;4.03;3.23;;;7.70;99.90;;;;;;4124956;28;20533;-66
2021/09/23 01:57:17;;;;;;;8.23;3.87;;;7.70;99.90;;;;;;4126034;28;20030;-66
2021/09/23 01:59:18;;;;;;;5.50;3.20;;;7.70;99.90;;;;;;4125354;28;20084;-69
2021/09/23 02:01:21;;;;;;;5.73;4.10;;;7.60;99.90;;;;;;4125439;28;20066;-66
2021/09/23 02:03:22;;;;;;;5.67;3.43;;;7.70;99.90;;;;;;4125872;28;20471;-67
2021/09/23 02:05:23;;;;;;;6.63;3.73;;;7.60;99.90;;;;;;4123127;28;20121;-67
2021/09/23 02:07:24;;;;;;;3.57;2.97;;;7.60;99.90;;;;;;4125806;28;20038;-67
2021/09/23 02:09:25;;;;;;;4.13;2.93;;;7.60;99.90;;;;;;4124696;28;20506;-66
2021/09/23 02:11:26;;;;;;;4.67;3.50;;;7.60;99.90;;;;;;4125207;28;20053;-66
2021/09/23 02:13:27;;;;;;;7.37;3.80;;;7.60;99.90;;;;;;4123583;28;20179;-66
2021/09/23 02:15:28;;;;;;;5.53;3.37;;;7.60;99.90;;;;;;4125378;28;20060;-66
2021/09/23 02:17:30;;;;;;;5.13;3.40;;;7.60;99.90;;;;;;4124812;28;20042;-67
2021/09/23 02:19:31;;;;;;;5.10;3.53;;;7.60;99.90;;;;;;4125766;28;20430;-66
2021/09/23 02:21:32;;;;;;;6.10;3.20;;;7.60;99.90;;;;;;4124852;28;20038;-66
2021/09/23 02:23:33;;;;;;;4.67;3.63;;;7.60;99.90;;;;;;4125281;28;20054;-65
2021/09/23 02:25:35;;;;;;;5.77;3.30;;;7.60;99.90;;;;;;4124424;28;20549;-66
2021/09/23 02:27:36;;;;;;;6.33;3.03;;;7.50;99.90;;;;;;4125309;28;20042;-67
2021/09/23 02:29:37;;;;;;;5.33;2.87;;;7.50;99.90;;;;;;4124812;28;20022;-67
2021/09/23 02:31:38;;;;;;;3.50;2.80;;;7.50;99.90;;;;;;4123734;28;20058;-68
2021/09/23 02:33:39;;;;;;;4.57;3.40;;;7.50;99.90;;;;;;4124815;28;20038;-66
2021/09/23 02:35:41;;;;;;;4.77;3.10;;;7.50;99.90;;;;;;4124494;28;20096;-68
2021/09/23 02:37:42;;;;;;;5.07;3.43;;;7.50;99.90;;;;;;4125424;28;20042;-66
2021/09/23 02:39:43;;;;;;;6.23;3.63;;;7.50;99.90;;;;;;4124561;28;20034;-67
2021/09/23 02:41:44;;;;;;;9.97;3.73;;;7.50;99.90;;;;;;4126017;28;20925;-67
2021/09/23 02:43:45;;;;;;;5.10;3.63;;;7.40;99.90;;;;;;4121919;28;20050;-67
2021/09/23 02:45:48;;;;;;;4.70;3.47;;;7.40;99.90;;;;;;4109465;28;20081;-72
2021/09/23 02:47:49;;;;;;;4.67;3.40;;;7.40;99.90;;;;;;4122285;28;20565;-67
2021/09/23 02:49:50;;;;;;;4.37;3.20;;;7.40;99.90;;;;;;4109437;28;20181;-66
2021/09/23 02:51:53;;;;;;;6.23;3.60;;;7.30;99.90;;;;;;4107686;28;20047;-71
2021/09/23 02:53:54;;;;;;;5.63;3.80;;;7.30;99.90;;;;;;4109680;28;20034;-66
2021/09/23 02:55:55;;;;;;;6.53;3.70;;;7.30;99.90;;;;;;4112086;28;20101;-66
2021/09/23 02:57:56;;;;;;;6.53;3.63;;;7.30;99.90;;;;;;4125462;28;20030;-71
2021/09/23 02:59:57;;;;;;;9.53;3.90;;;7.30;99.90;;;;;;4124204;28;20034;-66
2021/09/23 03:01:59;;;;;;;6.60;3.40;;;7.30;99.90;;;;;;4124737;28;20034;-69
2021/09/23 03:04:00;;;;;;;6.17;3.93;;;7.30;99.90;;;;;;4124632;28;20072;-66
2021/09/23 03:06:01;;;;;;;4.73;3.60;;;7.30;99.90;;;;;;4123920;28;20085;-66
2021/09/23 03:08:04;;;;;;;4.63;3.57;;;7.30;99.90;;;;;;4125284;28;20087;-68
2021/09/23 03:10:05;;;;;;;8.10;3.80;;;7.20;99.90;;;;;;4124190;28;20089;-67
2021/09/23 03:12:06;;;;;;;8.37;3.83;;;7.20;99.90;;;;;;4124748;28;20100;-69
2021/09/23 03:14:08;;;;;;;8.33;4.10;;;7.20;99.90;;;;;;4123845;28;20034;-67
2021/09/23 03:16:10;;;;;;;7.03;3.83;;;7.20;99.90;;;;;;4125253;28;20528;-72
2021/09/23 03:18:11;;;;;;;9.00;3.97;;;7.20;99.90;;;;;;4123708;28;20808;-67
2021/09/23 03:20:13;;;;;;;7.17;4.07;;;7.20;99.90;;;;;;4125228;28;20038;-68
2021/09/23 03:22:17;;;;;;;5.70;3.97;;;7.20;99.90;;;;;;4123901;28;20089;-66
2021/09/23 03:24:18;;;;;;;8.33;4.53;;;7.20;99.90;;;;;;4124821;28;20111;-67
2021/09/23 03:26:20;;;;;;;7.27;3.73;;;7.20;99.90;;;;;;4123665;28;20034;-68
2021/09/23 03:28:21;;;;;;;5.33;3.70;;;7.20;99.90;;;;;;4125071;28;20030;-68
2021/09/23 03:30:23;;;;;;;9.00;4.47;;;7.30;99.90;;;;;;4123840;28;20081;-67
2021/09/23 03:32:24;;;;;;;5.57;3.70;;;7.30;99.90;;;;;;4124688;28;20038;-68
2021/09/23 03:34:25;;;;;;;12.90;6.93;;;7.30;99.90;;;;;;4124073;28;20525;-67
2021/09/23 03:36:26;;;;;;;8.00;4.20;;;7.30;99.90;;;;;;4124040;28;20483;-70
2021/09/23 03:38:27;;;;;;;8.73;4.30;;;7.30;99.90;;;;;;4124450;28;20039;-66
2021/09/23 03:40:29;;;;;;;6.73;4.17;;;7.30;99.90;;;;;;4124035;28;20035;-67
2021/09/23 03:42:30;;;;;;;7.37;4.33;;;7.30;99.90;;;;;;4123301;28;20073;-69
2021/09/23 03:44:31;;;;;;;8.47;4.83;;;7.40;99.90;;;;;;4123675;28;20298;-66
2021/09/23 03:46:33;;;;;;;8.87;4.60;;;7.40;99.90;;;;;;4124045;28;20093;-67
2021/09/23 03:48:34;;;;;;;8.60;5.27;;;7.40;99.90;;;;;;4121949;28;20042;-67
2021/09/23 03:50:37;;;;;;;8.63;4.10;;;7.40;99.90;;;;;;4124760;28;20486;-69
2021/09/23 03:52:39;;;;;;;6.27;3.80;;;7.50;99.90;;;;;;4123304;28;20039;-68
2021/09/23 03:54:40;;;;;;;7.43;4.83;;;7.50;99.90;;;;;;4124795;28;20034;-68
2021/09/23 03:56:41;;;;;;;7.30;4.47;;;7.50;99.90;;;;;;4123338;28;20030;-69
2021/09/23 03:58:43;;;;;;;7.63;4.23;;;7.50;99.90;;;;;;4123923;28;20035;-70
2021/09/23 04:00:44;;;;;;;9.30;4.50;;;7.50;99.90;;;;;;4123327;28;20097;-68
2021/09/23 04:02:45;;;;;;;8.17;4.87;;;7.60;99.90;;;;;;4124469;28;20061;-67
2021/09/23 04:04:46;;;;;;;7.67;4.90;;;7.60;99.90;;;;;;4124196;28;20038;-67
2021/09/23 04:06:47;;;;;;;7.70;4.60;;;7.60;99.90;;;;;;4123327;28;20038;-68
2021/09/23 04:08:49;;;;;;;6.20;4.00;;;7.60;99.90;;;;;;4124049;28;20364;-69
2021/09/23 04:10:50;;;;;;;10.47;4.30;;;7.60;99.90;;;;;;4123525;28;20031;-69
2021/09/23 04:12:55;;;;;;;8.73;3.90;;;7.60;99.90;;;;;;4124486;28;20065;-65
2021/09/23 04:14:56;;;;;;;5.37;4.10;;;7.60;99.90;;;;;;4122650;28;20919;-65
2021/09/23 04:16:57;;;;;;;8.97;4.20;;;7.60;99.90;;;;;;4108113;28;20027;-69
2021/09/23 04:18:59;;;;;;;5.63;3.77;;;7.60;99.90;;;;;;4106829;28;20031;-72
2021/09/23 04:21:00;;;;;;;5.27;3.80;;;7.60;99.90;;;;;;4108045;28;20043;-66
2021/09/23 04:23:01;;;;;;;6.53;3.60;;;7.50;99.90;;;;;;4107575;28;20038;-65
2021/09/23 04:25:08;;;;;;;6.97;4.00;;;7.60;99.90;;;;;;4105126;28;20498;-66
2021/09/23 04:27:10;;;;;;;8.17;3.77;;;7.60;99.90;;;;;;4107737;28;20857;-66
2021/09/23 04:29:12;;;;;;;5.87;3.40;;;7.60;99.90;;;;;;4122739;28;20325;-67
2021/09/23 04:31:13;;;;;;;6.57;3.63;;;7.60;99.90;;;;;;4120940;28;20050;-69
2021/09/23 04:33:14;;;;;;;9.47;3.87;;;7.60;99.90;;;;;;4122111;28;20050;-72
2021/09/23 04:35:15;;;;;;;6.20;4.00;;;7.60;99.90;;;;;;4121553;28;20050;-66
2021/09/23 04:37:16;;;;;;;7.63;4.10;;;7.70;99.90;;;;;;4121360;28;20085;-66
2021/09/23 04:39:18;;;;;;;5.87;3.87;;;7.70;99.90;;;;;;4123954;28;20442;-66
2021/09/23 04:41:19;;;;;;;6.87;4.63;;;7.80;99.90;;;;;;4123906;28;20026;-63
2021/09/23 04:43:21;;;;;;;7.43;4.50;;;7.70;99.90;;;;;;4124737;28;20403;-67
2021/09/23 04:45:22;;;;;;;6.23;4.00;;;7.80;99.90;;;;;;4124524;28;20101;-67
2021/09/23 04:47:23;;;;;;;8.93;4.57;;;7.80;99.90;;;;;;4113430;28;20046;-71
2021/09/23 04:49:24;;;;;;;8.33;4.17;;;7.80;99.90;;;;;;4107753;28;20035;-70
2021/09/23 04:51:26;;;;;;;9.63;3.87;;;7.80;99.90;;;;;;4109530;28;20379;-66
2021/09/23 04:53:27;;;;;;;7.97;4.90;;;7.80;99.90;;;;;;4108935;28;20584;-72
2021/09/23 04:55:29;;;;;;;10.17;4.07;;;7.80;99.90;;;;;;4110406;28;20499;-67
2021/09/23 04:57:33;;;;;;;6.73;4.00;;;7.80;99.90;;;;;;4107856;28;20051;-67
2021/09/23 04:59:35;;;;;;;6.77;3.97;;;7.80;99.90;;;;;;4110942;28;20034;-68
2021/09/23 05:01:36;;;;;;;12.13;4.37;;;7.90;99.90;;;;;;4109530;28;20035;-68
2021/09/23 05:03:37;;;;;;;6.43;4.03;;;7.90;99.90;;;;;;4110090;28;20046;-71
2021/09/23 05:05:39;;;;;;;6.73;3.63;;;7.90;99.90;;;;;;4109393;28;20031;-67
2021/09/23 05:07:40;;;;;;;8.73;3.57;;;7.90;99.90;;;;;;4109225;28;20043;-69
2021/09/23 05:09:43;;;;;;;6.20;3.77;;;8.00;99.90;;;;;;4109633;28;20097;-70
2021/09/23 05:11:44;;;;;;;7.07;4.30;;;8.00;99.90;;;;;;4109543;28;20043;-68
2021/09/23 05:13:45;;;;;;;7.67;3.67;;;8.00;99.90;;;;;;4110093;28;20475;-68
2021/09/23 05:15:46;;;;;;;5.83;3.97;;;8.00;99.90;;;;;;4109000;28;20034;-69
2021/09/23 05:17:48;;;;;;;5.83;4.10;;;8.00;99.90;;;;;;4125923;28;20040;-71
2021/09/23 05:19:50;;;;;;;5.70;4.10;;;8.00;99.90;;;;;;4121304;28;20096;-67
2021/09/23 05:21:51;;;;;;;9.83;4.10;;;7.90;99.90;;;;;;4123487;28;20085;-68
2021/09/23 05:23:52;;;;;;;5.57;3.77;;;7.90;99.90;;;;;;4122053;28;20050;-69
2021/09/23 05:25:53;;;;;;;5.23;3.83;;;8.00;99.90;;;;;;4122573;28;20077;-66
2021/09/23 05:27:55;;;;;;;7.90;4.03;;;8.00;99.90;;;;;;4124412;28;20038;-68
2021/09/23 05:29:56;;;;;;;10.87;4.57;;;8.00;99.90;;;;;;4126560;28;20101;-69
2021/09/23 05:31:58;;;;;;;5.67;3.63;;;8.00;99.90;;;;;;4125267;28;20055;-68
2021/09/23 05:34:00;;;;;;;5.10;3.87;;;8.00;99.90;;;;;;4126542;28;20093;-66
2021/09/23 05:36:01;;;;;;;7.10;4.40;;;8.00;99.90;;;;;;4125092;28;20019;-68
2021/09/23 05:38:04;;;;;;;6.37;4.10;;;8.10;99.90;;;;;;4126265;28;20038;-69
2021/09/23 05:40:08;;;;;;;9.20;4.87;;;8.10;99.90;;;;;;4125434;28;20092;-67
2021/09/23 05:42:09;;;;;;;5.50;3.83;;;8.10;99.90;;;;;;4126389;28;20089;-66
2021/09/23 05:44:10;;;;;;;8.67;3.97;;;8.10;99.90;;;;;;4125795;28;20026;-70
2021/09/23 05:46:11;;;;;;;6.80;4.07;;;8.20;99.90;;;;;;4125173;28;20026;-68
2021/09/23 05:48:13;;;;;;;7.23;4.53;;;8.30;99.90;;;;;;4125722;28;20080;-66
2021/09/23 05:50:14;;;;;;;6.00;4.07;;;8.30;99.90;;;;;;4124453;28;20019;-62
2021/09/23 05:52:16;;;;;;;5.57;3.63;;;8.30;99.90;;;;;;4126317;28;20113;-66
2021/09/23 05:54:17;;;;;;;6.13;4.20;;;8.30;99.90;;;;;;4124909;28;20033;-65
2021/09/23 05:56:20;;;;;;;6.33;4.23;;;8.30;99.90;;;;;;4126365;28;20096;-65
2021/09/23 05:58:21;;;;;;;5.90;3.77;;;8.30;99.90;;;;;;4125264;28;20162;-69
2021/09/23 06:00:22;;;;;;;7.17;4.13;;;8.40;99.90;;;;;;4126217;28;20133;-69
2021/09/23 06:02:23;;;;;;;6.80;3.93;;;8.30;99.90;;;;;;4125269;28;20096;-70
2021/09/23 06:04:25;;;;;;;6.43;3.57;;;8.40;99.90;;;;;;4125611;28;20085;-67
2021/09/23 06:06:26;;;;;;;8.50;4.77;;;8.50;99.90;;;;;;4124554;28;20038;-72
2021/09/23 06:08:27;;;;;;;7.67;4.20;;;8.50;99.90;;;;;;4125818;28;20093;-70
2021/09/23 06:10:28;;;;;;;9.80;4.97;;;8.60;99.90;;;;;;4124476;28;20027;-69
2021/09/23 06:12:29;;;;;;;6.33;4.10;;;8.60;99.90;;;;;;4125738;28;20054;-72
2021/09/23 06:14:31;;;;;;;6.03;4.03;;;8.70;99.90;;;;;;4125095;28;20376;-71
2021/09/23 06:16:33;;;;;;;6.03;4.20;;;8.70;99.90;;;;;;4124943;28;20022;-70
2021/09/23 06:18:34;;;;;;;6.30;4.03;;;8.70;99.90;;;;;;4125935;28;20859;-70
2021/09/23 06:20:37;;;;;;;6.43;4.40;;;8.70;99.90;;;;;;4120927;28;20054;-68
2021/09/23 06:22:38;;;;;;;6.30;3.93;;;8.80;99.90;;;;;;4125917;28;20841;-69
2021/09/23 06:24:39;;;;;;;8.27;4.90;;;8.80;99.90;;;;;;4123390;28;20042;-67
2021/09/23 06:26:40;;;;;;;8.33;4.27;;;8.90;99.90;;;;;;4125999;28;20081;-69
2021/09/23 06:28:41;;;;;;;10.43;4.17;;;9.00;99.90;;;;;;4108637;28;20475;-70
2021/09/23 06:30:43;;;;;;;5.97;3.97;;;9.00;99.90;;;;;;4121192;28;20026;-67
2021/09/23 06:32:44;;;;;;;7.03;4.50;;;9.10;99.90;;;;;;4124285;28;20093;-68
2021/09/23 06:34:45;;;;;;;7.97;4.33;;;9.10;99.90;;;;;;4125866;28;20042;-68
2021/09/23 06:36:47;;;;;;;8.53;4.47;;;9.20;99.90;;;;;;4122487;28;20046;-72
2021/09/23 06:38:48;;;;;;;7.97;4.23;;;9.20;99.90;;;;;;4125347;28;20089;-67
2021/09/23 06:40:54;;;;;;;9.40;4.53;;;9.20;99.90;;;;;;4122578;28;20042;-68
2021/09/23 06:42:55;;;;;;;8.87;4.53;;;9.20;99.90;;;;;;4125805;28;20395;-65
2021/09/23 06:44:56;;;;;;;6.43;4.00;;;9.20;99.90;;;;;;4125019;28;20033;-66
2021/09/23 06:46:57;;;;;;;5.87;4.03;;;9.30;99.90;;;;;;4125174;28;20042;-71
2021/09/23 06:48:59;;;;;;;8.03;4.40;;;9.20;99.90;;;;;;4125384;28;20081;-66
2021/09/23 06:51:00;;;;;;;8.20;4.90;;;9.30;99.90;;;;;;4123706;28;20038;-68
2021/09/23 06:53:01;;;;;;;9.10;5.07;;;9.40;99.90;;;;;;4125655;28;20459;-65
2021/09/23 06:55:03;;;;;;;8.57;4.80;;;9.50;99.90;;;;;;4123686;28;20045;-71
2021/09/23 06:57:04;;;;;;;9.07;4.60;;;9.60;99.90;;;;;;4125306;28;20462;-67
2021/09/23 06:59:05;;;;;;;8.20;4.57;;;9.70;99.90;;;;;;4123522;28;20038;-66
2021/09/23 07:01:07;;;;;;;13.67;5.73;;;9.80;99.90;;;;;;4124147;28;20038;-69
2021/09/23 07:03:08;;;;;;;7.30;4.63;;;9.80;99.90;;;;;;4122782;28;20411;-68
2021/09/23 07:05:09;;;;;;;11.43;6.03;;;9.80;99.90;;;;;;4124797;28;20043;-66
2021/09/23 07:07:10;;;;;;;6.40;4.60;;;9.90;99.90;;;;;;4124057;28;20088;-67
2021/09/23 07:09:11;;;;;;;7.20;4.30;;;9.90;99.90;;;;;;4123963;28;20093;-66
2021/09/23 07:11:12;;;;;;;17.07;7.63;;;9.90;99.90;;;;;;4124020;28;20096;-66
2021/09/23 07:13:13;;;;;;;9.00;4.83;;;9.90;99.90;;;;;;4124841;28;20073;-66
2021/09/23 07:15:15;;;;;;;8.57;4.20;;;9.90;99.90;;;;;;4116754;28;20458;-66
2021/09/23 07:17:16;;;;;;;18.13;4.80;;;9.90;99.90;;;;;;4124410;28;20084;-66
2021/09/23 07:19:17;;;;;;;7.63;4.40;;;10.00;99.90;;;;;;4124969;28;20430;-67
2021/09/23 07:21:19;;;;;;;6.97;4.93;;;10.00;99.90;;;;;;4122103;28;20097;-67
2021/09/23 07:23:20;;;;;;;8.30;4.90;;;10.00;99.90;;;;;;4124251;28;20100;-66
2021/09/23 07:25:23;;;;;;;7.37;4.60;;;10.00;99.90;;;;;;4123760;28;20042;-66
2021/09/23 07:27:25;;;;;;;6.93;4.70;;;10.00;99.90;;;;;;4123920;28;20038;-70
2021/09/23 07:29:27;;;;;;;7.10;4.67;;;10.10;99.90;;;;;;4122565;28;20031;-66
2021/09/23 07:31:28;;;;;;;6.27;4.37;;;10.20;99.90;;;;;;4124481;28;20443;-68
2021/09/23 07:33:29;;;;;;;7.43;4.33;;;10.10;99.90;;;;;;4123371;28;20034;-67
2021/09/23 07:35:30;;;;;;;7.37;4.50;;;10.20;99.90;;;;;;4108688;28;20543;-67
2021/09/23 07:37:33;;;;;;;5.40;3.90;;;10.10;99.90;;;;;;4121347;28;20034;-70
2021/09/23 07:39:35;;;;;;;8.93;4.87;;;10.10;99.90;;;;;;4124506;28;20077;-66
2021/09/23 07:41:38;;;;;;;6.83;4.43;;;10.10;99.90;;;;;;4123652;28;20035;-67
2021/09/23 07:43:39;;;;;;;6.83;4.50;;;10.10;99.90;;;;;;4124032;28;20076;-64
2021/09/23 07:45:41;;;;;;;9.20;5.83;;;10.10;99.90;;;;;;4121323;28;20068;-65
2021/09/23 07:47:42;;;;;;;8.37;5.00;;;10.20;99.90;;;;;;4124287;28;20084;-64
2021/09/23 07:49:43;;;;;;;8.40;5.23;;;10.20;99.90;;;;;;4123747;28;20034;-65
2021/09/23 07:51:45;;;;;;;9.73;5.27;;;10.30;99.90;;;;;;4120425;28;20069;-67
2021/09/23 07:53:47;;;;;;;12.10;5.73;;;10.30;99.90;;;;;;4107540;28;20557;-68
2021/09/23 07:55:48;;;;;;;7.10;5.13;;;10.40;99.90;;;;;;4122675;28;20038;-65
2021/09/23 07:57:49;;;;;;;9.43;5.50;;;10.50;99.90;;;;;;4124865;28;20474;-67
2021/09/23 07:59:51;;;;;;;9.60;4.37;;;10.50;99.90;;;;;;4123464;28;20088;-65
2021/09/23 08:01:52;;;;;;;7.07;4.80;;;10.50;99.90;;;;;;4124618;28;20454;-67
2021/09/23 08:03:54;;;;;;;7.87;5.37;;;10.50;99.90;;;;;;4123536;28;20030;-65
2021/09/23 08:05:55;;;;;;;6.70;4.27;;;10.50;99.90;;;;;;4124508;28;20089;-66
2021/09/23 08:08:01;;;;;;;5.87;4.50;;;10.50;99.90;;;;;;4116345;28;20027;-68
2021/09/23 08:10:03;;;;;;;6.40;4.57;;;10.50;99.90;;;;;;4123386;28;20085;-65
2021/09/23 08:12:05;;;;;;;11.07;4.73;;;10.70;99.90;;;;;;4122396;28;20060;-65
2021/09/23 08:14:07;;;;;;;7.70;4.77;;;10.70;99.90;;;;;;4125832;28;20116;-66
2021/09/23 08:16:08;;;;;;;10.43;5.80;;;10.80;99.90;;;;;;4126916;28;20023;-65
2021/09/23 08:18:10;;;;;;;8.47;5.13;;;10.80;99.90;;;;;;4127752;28;20034;-67
2021/09/23 08:20:12;;;;;;;13.73;5.43;;;10.80;99.90;;;;;;4125883;28;20030;-66
2021/09/23 08:22:13;;;;;;;10.13;5.50;;;10.80;99.90;;;;;;4125316;28;20105;-65
2021/09/23 08:24:14;;;;;;;7.63;4.80;;;10.80;99.90;;;;;;4125769;28;20050;-62
2021/09/23 08:26:15;;;;;;;7.87;4.83;;;10.90;99.90;;;;;;4125931;28;20034;-65
2021/09/23 08:28:17;;;;;;;6.80;4.60;;;10.90;99.90;;;;;;4127188;28;20046;-65
2021/09/23 08:30:18;;;;;;;8.50;5.20;;;11.00;99.90;;;;;;4126110;28;20039;-66
2021/09/23 08:32:19;;;;;;;7.20;5.00;;;11.00;99.90;;;;;;4127609;28;20158;-67
2021/09/23 08:34:21;;;;;;;9.53;4.87;;;10.90;99.90;;;;;;4126040;28;20050;-64
2021/09/23 08:36:22;;;;;;;9.43;5.73;;;11.00;99.90;;;;;;4126351;28;20120;-66
2021/09/23 08:38:23;;;;;;;8.90;5.00;;;11.00;99.90;;;;;;4110198;28;20039;-66
2021/09/23 08:40:25;;;;;;;7.77;5.10;;;11.10;99.90;;;;;;4111227;28;20035;-67
2021/09/23 08:42:27;;;;;;;5.97;4.60;;;11.10;99.90;;;;;;4110623;28;20078;-67
2021/09/23 08:44:29;;;;;;;7.97;5.50;;;11.20;99.90;;;;;;4111356;28;20542;-66
2021/09/23 08:46:36;;;;;;;7.07;5.23;;;11.20;99.90;;;;;;4109805;28;20090;-67
2021/09/23 08:48:37;;;;;;;6.63;4.60;;;11.20;99.90;;;;;;4118618;28;20093;-65
2021/09/23 08:50:39;;;;;;;8.33;5.40;;;11.30;99.90;;;;;;4126053;28;20026;-65
2021/09/23 08:52:40;;;;;;;15.70;5.53;;;11.30;99.90;;;;;;4126929;28;20097;-66
2021/09/23 08:54:41;;;;;;;11.00;5.47;;;11.30;99.90;;;;;;4126439;28;20048;-65
2021/09/23 08:56:43;;;;;;;8.80;6.30;;;11.30;99.90;;;;;;4125468;28;20112;-66
2021/09/23 08:58:44;;;;;;;10.23;5.73;;;11.40;99.90;;;;;;4126824;28;20092;-66
2021/09/23 09:01:17;;;;;;;6.00;4.57;;;11.50;99.90;;;;;;4126452;28;20030;-66
2021/09/23 09:03:18;;;;;;;8.93;5.37;;;11.50;99.90;;;;;;4126002;28;20077;-66
2021/09/23 09:05:19;;;;;;;8.43;4.87;;;11.50;99.90;;;;;;4126027;28;20030;-67
2021/09/23 09:07:25;;;;;;;8.93;5.23;;;11.60;99.90;;;;;;4126666;28;20455;-66
2021/09/23 09:09:27;;;;;;;7.57;4.90;;;11.60;99.90;;;;;;4125845;28;20463;-68
2021/09/23 09:11:30;;;;;;;7.23;5.50;;;11.60;99.90;;;;;;4126050;28;20096;-66
2021/09/23 09:13:37;;;;;;;8.03;4.90;;;11.70;99.90;;;;;;4125515;28;20082;-65
2021/09/23 09:15:44;;;;;;;9.53;5.20;;;11.70;99.90;;;;;;4123942;28;20091;-66
2021/09/23 09:17:45;;;;;;;7.57;5.10;;;11.80;99.90;;;;;;4109086;28;20066;-66
2021/09/23 09:20:02;;;;;;;6.83;5.13;;;11.80;99.90;;;;;;4110472;28;20042;-66
2021/09/23 09:22:12;;;;;;;5.80;4.07;;;11.80;99.90;;;;;;4108981;28;20081;-66
2021/09/23 09:24:17;;;;;;;6.35;4.53;;;11.80;99.90;;;;;;4112386;28;20101;-67
2021/09/23 09:26:26;;;;;;;9.60;4.90;;;11.80;99.90;;;;;;4125369;28;20038;-66
2021/09/23 09:28:27;;;;;;;8.20;5.53;;;11.70;99.90;;;;;;4125124;28;20042;-64
2021/09/23 09:30:31;;;;;;;7.37;5.10;;;11.60;99.90;;;;;;4124639;28;20042;-64
2021/09/23 09:32:39;;;;;;;7.13;5.37;;;11.60;99.90;;;;;;4110225;28;20137;-65
2021/09/23 09:34:55;;;;;;;8.07;4.67;;;11.70;99.90;;;;;;4108970;28;20065;-67
2021/09/23 09:36:59;;;;;;;7.47;4.80;;;11.70;99.90;;;;;;4124397;28;20047;-66
2021/09/23 09:39:05;;;;;;;7.50;4.97;;;11.80;99.90;;;;;;4116500;28;20030;-67
2021/09/23 09:41:09;;;;;;;9.00;4.77;;;11.80;99.90;;;;;;4125221;28;20077;-67
2021/09/23 09:43:12;;;;;;;6.93;4.67;;;11.80;99.90;;;;;;4125053;28;20034;-64
2021/09/23 09:45:22;;;;;;;7.87;4.33;;;11.90;99.90;;;;;;4123490;28;20537;-67
2021/09/23 09:47:33;;;;;;;5.37;4.13;;;12.00;99.90;;;;;;4137493;28;20030;-65
2021/09/23 09:49:34;;;;;;;9.77;4.57;;;12.10;99.90;;;;;;4141875;28;20376;-65
2021/09/23 09:51:40;;;;;;;5.73;4.20;;;12.10;99.90;;;;;;4140399;28;20041;-64
2021/09/23 09:53:42;;;;;;;5.03;4.07;;;12.20;99.90;;;;;;4142208;28;20121;-67
2021/09/23 09:55:47;;;;;;;6.63;3.80;;;12.20;99.90;;;;;;4127716;28;20453;-65
2021/09/23 09:57:50;;;;;;;5.10;3.53;;;12.20;99.90;;;;;;4116365;28;20035;-66
2021/09/23 09:59:52;;;;;;;5.60;4.10;;;12.20;99.90;;;;;;4112245;28;20050;-68
2021/09/23 10:01:56;;;;;;;6.20;3.93;;;12.20;99.90;;;;;;4109521;28;20313;-65
2021/09/23 10:03:57;;;;;;;5.00;3.50;;;12.20;99.90;;;;;;4109079;28;20031;-66
2021/09/23 10:05:58;;;;;;;5.77;3.47;;;12.20;99.90;;;;;;4108967;28;20077;-67
2021/09/23 10:08:00;;;;;;;5.60;3.00;;;12.40;99.90;;;;;;4109072;28;20055;-67
2021/09/23 10:10:02;;;;;;;4.03;3.03;;;12.50;99.90;;;;;;4108800;28;20035;-68
2021/09/23 10:12:05;;;;;;;5.87;3.67;;;12.50;99.90;;;;;;4114157;28;20501;-70
2021/09/23 10:14:06;;;;;;;6.47;3.80;;;12.60;99.90;;;;;;4118516;28;20129;-66
2021/09/23 10:16:08;;;;;;;6.93;3.23;;;12.80;99.90;;;;;;4124483;28;20108;-66
2021/09/23 10:18:09;;;;;;;6.57;3.40;;;12.90;99.90;;;;;;4122519;28;20030;-67
2021/09/23 10:20:15;;;;;;;3.93;2.57;;;12.90;99.90;;;;;;4124113;28;20034;-67
2021/09/23 10:22:17;;;;;;;3.53;2.60;;;12.90;99.90;;;;;;4122932;28;20046;-66
2021/09/23 10:24:19;;;;;;;3.13;2.03;;;12.90;99.90;;;;;;4123758;28;20054;-67
2021/09/23 10:26:28;;;;;;;4.90;2.30;;;12.90;99.90;;;;;;4122847;28;20038;-66
2021/09/23 10:28:29;;;;;;;3.87;2.60;;;12.90;99.90;;;;;;4123548;28;20038;-68
2021/09/23 10:30:34;;;;;;;4.80;2.47;;;12.90;99.90;;;;;;4122005;28;20108;-67
2021/09/23 10:32:36;;;;;;;4.20;2.57;;;13.00;99.90;;;;;;4124603;28;20096;-67
2021/09/23 10:34:37;;;;;;;2.90;2.33;;;13.00;99.90;;;;;;4124296;28;20561;-67
2021/09/23 10:36:41;;;;;;;2.20;1.90;;;13.10;99.90;;;;;;4123313;28;20430;-67
2021/09/23 10:38:44;;;;;;;3.03;2.30;;;13.10;99.90;;;;;;4123965;28;20092;-69
2021/09/23 10:40:49;;;;;;;4.17;2.10;;;13.10;99.90;;;;;;4125077;28;20046;-67
2021/09/23 10:42:53;;;;;;;3.13;2.07;;;13.20;99.90;;;;;;4124093;28;20038;-67